sensor_id;sensor_type;location;lat;lon;timestamp;P1;durP1;ratioP1;P2;durP2;ratioP2
29724;SDS011;16636;48.394;15.468;2022-08-11T00:00:16;6.40;;;2.10;;
29724;SDS011;16636;48.394;15.468;2022-08-11T00:02:47;2.33;;;1.48;;
29724;SDS011;16636;48.394;15.468;2022-08-11T00:05:17;1.97;;;1.50;;
29724;SDS011;16636;48.394;15.468;2022-08-11T00:07:55;1.50;;;1.35;;
29724;SDS011;16636;48.394;15.468;2022-08-11T00:13:15;3.22;;;1.95;;
29724;SDS011;16636;48.394;15.468;2022-08-11T00:15:43;4.28;;;2.05;;
29724;SDS011;16636;48.394;15.468;2022-08-11T00:18:10;2.55;;;1.38;;
29724;SDS011;16636;48.394;15.468;2022-08-11T00:20:42;3.97;;;1.80;;
29724;SDS011;16636;48.394;15.468;2022-08-11T00:23:14;1.75;;;1.58;;
29724;SDS011;16636;48.394;15.468;2022-08-11T00:28:31;2.85;;;1.50;;
29724;SDS011;16636;48.394;15.468;2022-08-11T00:31:09;2.75;;;1.50;;
29724;SDS011;16636;48.394;15.468;2022-08-11T00:33:45;3.03;;;1.67;;
29724;SDS011;16636;48.394;15.468;2022-08-11T00:36:17;2.13;;;1.52;;
29724;SDS011;16636;48.394;15.468;2022-08-11T00:38:45;3.08;;;1.95;;
29724;SDS011;16636;48.394;15.468;2022-08-11T00:41:33;2.03;;;1.60;;
29724;SDS011;16636;48.394;15.468;2022-08-11T00:58:04;4.25;;;1.83;;
29724;SDS011;16636;48.394;15.468;2022-08-11T01:04:14;2.60;;;1.77;;
29724;SDS011;16636;48.394;15.468;2022-08-11T01:07:46;5.47;;;1.80;;
29724;SDS011;16636;48.394;15.468;2022-08-11T01:32:29;5.40;;;1.55;;
29724;SDS011;16636;48.394;15.468;2022-08-11T01:38:27;2.60;;;1.45;;
29724;SDS011;16636;48.394;15.468;2022-08-11T01:53:11;4.47;;;2.10;;
29724;SDS011;16636;48.394;15.468;2022-08-11T01:58:41;4.88;;;1.73;;
29724;SDS011;16636;48.394;15.468;2022-08-11T02:17:35;3.30;;;2.08;;
29724;SDS011;16636;48.394;15.468;2022-08-11T02:20:23;3.13;;;1.98;;
29724;SDS011;16636;48.394;15.468;2022-08-11T02:23:54;4.82;;;1.85;;
29724;SDS011;16636;48.394;15.468;2022-08-11T02:26:22;6.30;;;2.00;;
29724;SDS011;16636;48.394;15.468;2022-08-11T02:34:58;3.60;;;1.75;;
29724;SDS011;16636;48.394;15.468;2022-08-11T02:37:51;3.97;;;1.90;;
29724;SDS011;16636;48.394;15.468;2022-08-11T02:40:41;3.15;;;1.83;;
29724;SDS011;16636;48.394;15.468;2022-08-11T02:46:41;3.67;;;1.75;;
29724;SDS011;16636;48.394;15.468;2022-08-11T02:49:08;2.45;;;1.80;;
29724;SDS011;16636;48.394;15.468;2022-08-11T02:52:04;3.78;;;1.83;;
29724;SDS011;16636;48.394;15.468;2022-08-11T02:57:37;6.95;;;1.70;;
29724;SDS011;16636;48.394;15.468;2022-08-11T03:00:12;4.07;;;1.70;;
29724;SDS011;16636;48.394;15.468;2022-08-11T03:10:56;2.67;;;1.85;;
29724;SDS011;16636;48.394;15.468;2022-08-11T03:16:51;2.78;;;1.85;;
29724;SDS011;16636;48.394;15.468;2022-08-11T03:33:56;4.95;;;2.60;;
29724;SDS011;16636;48.394;15.468;2022-08-11T03:42:57;3.55;;;1.40;;
29724;SDS011;16636;48.394;15.468;2022-08-11T03:45:27;2.55;;;1.60;;
29724;SDS011;16636;48.394;15.468;2022-08-11T03:54:54;3.00;;;2.00;;
29724;SDS011;16636;48.394;15.468;2022-08-11T04:00:22;5.22;;;2.17;;
29724;SDS011;16636;48.394;15.468;2022-08-11T04:12:52;5.30;;;2.08;;
29724;SDS011;16636;48.394;15.468;2022-08-11T04:33:28;4.78;;;1.80;;
29724;SDS011;16636;48.394;15.468;2022-08-11T04:36:52;3.47;;;1.90;;
29724;SDS011;16636;48.394;15.468;2022-08-11T04:58:15;4.38;;;1.85;;
29724;SDS011;16636;48.394;15.468;2022-08-11T05:01:25;6.13;;;2.40;;
29724;SDS011;16636;48.394;15.468;2022-08-11T05:13:04;5.03;;;2.28;;
29724;SDS011;16636;48.394;15.468;2022-08-11T05:15:57;3.92;;;2.40;;
29724;SDS011;16636;48.394;15.468;2022-08-11T05:18:45;4.83;;;1.87;;
29724;SDS011;16636;48.394;15.468;2022-08-11T05:21:32;5.40;;;2.00;;
29724;SDS011;16636;48.394;15.468;2022-08-11T05:28:11;3.35;;;1.80;;
29724;SDS011;16636;48.394;15.468;2022-08-11T05:30:44;4.32;;;1.90;;
29724;SDS011;16636;48.394;15.468;2022-08-11T05:33:41;3.35;;;2.13;;
29724;SDS011;16636;48.394;15.468;2022-08-11T05:39:15;3.05;;;2.15;;
29724;SDS011;16636;48.394;15.468;2022-08-11T05:42:04;11.77;;;2.08;;
29724;SDS011;16636;48.394;15.468;2022-08-11T05:44:50;3.63;;;1.95;;
29724;SDS011;16636;48.394;15.468;2022-08-11T05:47:38;2.20;;;1.83;;
29724;SDS011;16636;48.394;15.468;2022-08-11T05:50:24;4.57;;;2.22;;
29724;SDS011;16636;48.394;15.468;2022-08-11T05:53:09;2.47;;;1.90;;
29724;SDS011;16636;48.394;15.468;2022-08-11T05:55:56;3.40;;;2.40;;
29724;SDS011;16636;48.394;15.468;2022-08-11T05:58:43;3.58;;;2.35;;
29724;SDS011;16636;48.394;15.468;2022-08-11T06:01:12;5.00;;;1.92;;
29724;SDS011;16636;48.394;15.468;2022-08-11T06:03:45;3.70;;;2.20;;
29724;SDS011;16636;48.394;15.468;2022-08-11T06:09:24;7.75;;;2.40;;
29724;SDS011;16636;48.394;15.468;2022-08-11T06:12:05;2.88;;;1.77;;
29724;SDS011;16636;48.394;15.468;2022-08-11T06:14:40;2.53;;;1.92;;
29724;SDS011;16636;48.394;15.468;2022-08-11T06:17:08;5.25;;;2.75;;
29724;SDS011;16636;48.394;15.468;2022-08-11T06:19:37;2.55;;;1.88;;
29724;SDS011;16636;48.394;15.468;2022-08-11T06:22:11;5.55;;;1.83;;
29724;SDS011;16636;48.394;15.468;2022-08-11T06:24:39;3.70;;;2.17;;
29724;SDS011;16636;48.394;15.468;2022-08-11T06:27:06;4.10;;;2.22;;
29724;SDS011;16636;48.394;15.468;2022-08-11T06:29:37;2.05;;;1.58;;
29724;SDS011;16636;48.394;15.468;2022-08-11T06:35:10;2.47;;;1.80;;
29724;SDS011;16636;48.394;15.468;2022-08-11T06:41:00;2.33;;;1.70;;
29724;SDS011;16636;48.394;15.468;2022-08-11T06:43:52;4.80;;;1.63;;
29724;SDS011;16636;48.394;15.468;2022-08-11T06:46:25;4.77;;;2.10;;
29724;SDS011;16636;48.394;15.468;2022-08-11T06:48:55;3.88;;;1.83;;
29724;SDS011;16636;48.394;15.468;2022-08-11T06:51:22;4.20;;;1.90;;
29724;SDS011;16636;48.394;15.468;2022-08-11T06:53:52;3.03;;;1.45;;
29724;SDS011;16636;48.394;15.468;2022-08-11T06:56:24;4.07;;;2.15;;
29724;SDS011;16636;48.394;15.468;2022-08-11T06:59:15;1.88;;;1.33;;
29724;SDS011;16636;48.394;15.468;2022-08-11T07:13:35;7.38;;;2.70;;
29724;SDS011;16636;48.394;15.468;2022-08-11T07:16:25;5.45;;;1.70;;
29724;SDS011;16636;48.394;15.468;2022-08-11T07:19:11;10.70;;;3.20;;
29724;SDS011;16636;48.394;15.468;2022-08-11T07:22:01;3.90;;;1.67;;
29724;SDS011;16636;48.394;15.468;2022-08-11T07:25:19;2.75;;;1.30;;
29724;SDS011;16636;48.394;15.468;2022-08-11T07:28:09;3.40;;;1.25;;
29724;SDS011;16636;48.394;15.468;2022-08-11T07:30:57;2.42;;;1.60;;
29724;SDS011;16636;48.394;15.468;2022-08-11T07:33:38;8.32;;;2.05;;
29724;SDS011;16636;48.394;15.468;2022-08-11T07:36:11;5.15;;;1.63;;
29724;SDS011;16636;48.394;15.468;2022-08-11T07:38:43;5.85;;;2.00;;
29724;SDS011;16636;48.394;15.468;2022-08-11T07:41:18;3.67;;;1.27;;
29724;SDS011;16636;48.394;15.468;2022-08-11T07:43:54;6.82;;;1.45;;
29724;SDS011;16636;48.394;15.468;2022-08-11T07:46:42;5.18;;;1.40;;
29724;SDS011;16636;48.394;15.468;2022-08-11T07:49:31;3.15;;;1.48;;
29724;SDS011;16636;48.394;15.468;2022-08-11T07:52:18;5.60;;;1.85;;
29724;SDS011;16636;48.394;15.468;2022-08-11T07:54:55;6.97;;;1.75;;
29724;SDS011;16636;48.394;15.468;2022-08-11T07:57:27;4.45;;;1.55;;
29724;SDS011;16636;48.394;15.468;2022-08-11T08:00:37;3.92;;;1.48;;
29724;SDS011;16636;48.394;15.468;2022-08-11T08:03:25;4.43;;;1.58;;
29724;SDS011;16636;48.394;15.468;2022-08-11T08:06:12;6.40;;;1.85;;
29724;SDS011;16636;48.394;15.468;2022-08-11T08:08:57;3.33;;;1.70;;
29724;SDS011;16636;48.394;15.468;2022-08-11T08:11:48;3.58;;;1.33;;
29724;SDS011;16636;48.394;15.468;2022-08-11T08:14:33;4.53;;;1.70;;
29724;SDS011;16636;48.394;15.468;2022-08-11T08:17:19;2.60;;;1.58;;
29724;SDS011;16636;48.394;15.468;2022-08-11T08:20:05;3.00;;;1.20;;
29724;SDS011;16636;48.394;15.468;2022-08-11T08:22:35;2.97;;;1.77;;
29724;SDS011;16636;48.394;15.468;2022-08-11T08:25:03;1.80;;;1.10;;
29724;SDS011;16636;48.394;15.468;2022-08-11T08:27:30;2.22;;;1.27;;
29724;SDS011;16636;48.394;15.468;2022-08-11T08:29:56;1.30;;;0.95;;
29724;SDS011;16636;48.394;15.468;2022-08-11T08:32:42;2.05;;;1.13;;
29724;SDS011;16636;48.394;15.468;2022-08-11T08:35:12;3.10;;;1.20;;
29724;SDS011;16636;48.394;15.468;2022-08-11T08:37:39;1.98;;;1.10;;
29724;SDS011;16636;48.394;15.468;2022-08-11T08:40:05;6.93;;;1.20;;
29724;SDS011;16636;48.394;15.468;2022-08-11T08:42:52;2.10;;;1.20;;
29724;SDS011;16636;48.394;15.468;2022-08-11T08:45:25;2.35;;;1.15;;
29724;SDS011;16636;48.394;15.468;2022-08-11T08:48:05;3.17;;;2.08;;
29724;SDS011;16636;48.394;15.468;2022-08-11T08:50:36;1.42;;;0.98;;
29724;SDS011;16636;48.394;15.468;2022-08-11T08:53:26;4.43;;;1.00;;
29724;SDS011;16636;48.394;15.468;2022-08-11T08:55:57;1.35;;;1.02;;
29724;SDS011;16636;48.394;15.468;2022-08-11T08:58:24;7.43;;;1.10;;
29724;SDS011;16636;48.394;15.468;2022-08-11T09:00:52;1.92;;;1.05;;
29724;SDS011;16636;48.394;15.468;2022-08-11T09:03:19;5.60;;;1.40;;
29724;SDS011;16636;48.394;15.468;2022-08-11T09:05:46;3.90;;;0.93;;
29724;SDS011;16636;48.394;15.468;2022-08-11T09:08:15;3.13;;;1.10;;
29724;SDS011;16636;48.394;15.468;2022-08-11T09:10:44;5.43;;;1.00;;
29724;SDS011;16636;48.394;15.468;2022-08-11T09:13:33;2.78;;;1.02;;
29724;SDS011;16636;48.394;15.468;2022-08-11T09:16:01;2.25;;;0.98;;
29724;SDS011;16636;48.394;15.468;2022-08-11T09:18:29;2.00;;;1.00;;
29724;SDS011;16636;48.394;15.468;2022-08-11T09:20:56;8.13;;;1.23;;
29724;SDS011;16636;48.394;15.468;2022-08-11T09:23:23;1.55;;;1.02;;
29724;SDS011;16636;48.394;15.468;2022-08-11T09:29:40;0.70;;;0.70;;
29724;SDS011;16636;48.394;15.468;2022-08-11T09:32:08;4.75;;;0.70;;
29724;SDS011;16636;48.394;15.468;2022-08-11T09:34:35;1.60;;;0.80;;
29724;SDS011;16636;48.394;15.468;2022-08-11T09:37:03;1.67;;;1.00;;
29724;SDS011;16636;48.394;15.468;2022-08-11T09:39:49;3.22;;;1.00;;
29724;SDS011;16636;48.394;15.468;2022-08-11T09:45:23;2.45;;;1.00;;
29724;SDS011;16636;48.394;15.468;2022-08-11T09:47:49;0.98;;;0.70;;
29724;SDS011;16636;48.394;15.468;2022-08-11T09:50:16;2.05;;;0.90;;
29724;SDS011;16636;48.394;15.468;2022-08-11T09:52:43;1.70;;;0.93;;
29724;SDS011;16636;48.394;15.468;2022-08-11T09:55:13;4.32;;;1.08;;
29724;SDS011;16636;48.394;15.468;2022-08-11T09:57:40;1.67;;;0.82;;
29724;SDS011;16636;48.394;15.468;2022-08-11T10:00:29;2.33;;;0.88;;
29724;SDS011;16636;48.394;15.468;2022-08-11T10:03:01;5.22;;;1.17;;
29724;SDS011;16636;48.394;15.468;2022-08-11T10:05:31;1.38;;;0.85;;
29724;SDS011;16636;48.394;15.468;2022-08-11T10:08:17;2.30;;;0.90;;
29724;SDS011;16636;48.394;15.468;2022-08-11T10:10:44;0.85;;;0.73;;
29724;SDS011;16636;48.394;15.468;2022-08-11T10:13:16;1.33;;;0.80;;
29724;SDS011;16636;48.394;15.468;2022-08-11T10:15:45;1.17;;;0.60;;
29724;SDS011;16636;48.394;15.468;2022-08-11T10:18:14;2.80;;;0.73;;
29724;SDS011;16636;48.394;15.468;2022-08-11T10:21:09;0.65;;;0.65;;
29724;SDS011;16636;48.394;15.468;2022-08-11T10:23:38;0.80;;;0.77;;
29724;SDS011;16636;48.394;15.468;2022-08-11T10:26:23;1.63;;;0.70;;
29724;SDS011;16636;48.394;15.468;2022-08-11T10:29:11;0.73;;;0.50;;
29724;SDS011;16636;48.394;15.468;2022-08-11T10:31:57;3.35;;;0.77;;
29724;SDS011;16636;48.394;15.468;2022-08-11T10:34:43;2.17;;;0.90;;
29724;SDS011;16636;48.394;15.468;2022-08-11T10:37:11;2.30;;;0.75;;
29724;SDS011;16636;48.394;15.468;2022-08-11T10:39:38;1.20;;;0.77;;
29724;SDS011;16636;48.394;15.468;2022-08-11T10:42:05;0.63;;;0.63;;
29724;SDS011;16636;48.394;15.468;2022-08-11T10:44:52;2.35;;;0.68;;
29724;SDS011;16636;48.394;15.468;2022-08-11T10:47:19;3.92;;;0.88;;
29724;SDS011;16636;48.394;15.468;2022-08-11T10:50:02;3.70;;;0.93;;
29724;SDS011;16636;48.394;15.468;2022-08-11T10:52:52;1.70;;;0.93;;
29724;SDS011;16636;48.394;15.468;2022-08-11T10:55:38;2.38;;;0.70;;
29724;SDS011;16636;48.394;15.468;2022-08-11T10:58:26;2.00;;;0.95;;
29724;SDS011;16636;48.394;15.468;2022-08-11T11:01:12;1.20;;;0.60;;
29724;SDS011;16636;48.394;15.468;2022-08-11T11:03:39;7.20;;;1.30;;
29724;SDS011;16636;48.394;15.468;2022-08-11T11:06:08;1.40;;;0.60;;
29724;SDS011;16636;48.394;15.468;2022-08-11T11:08:44;1.00;;;0.80;;
29724;SDS011;16636;48.394;15.468;2022-08-11T11:11:18;5.45;;;0.85;;
29724;SDS011;16636;48.394;15.468;2022-08-11T11:13:50;0.85;;;0.85;;
29724;SDS011;16636;48.394;15.468;2022-08-11T11:16:35;2.42;;;1.00;;
29724;SDS011;16636;48.394;15.468;2022-08-11T11:19:23;2.47;;;0.80;;
29724;SDS011;16636;48.394;15.468;2022-08-11T11:21:51;2.47;;;0.80;;
29724;SDS011;16636;48.394;15.468;2022-08-11T11:32:43;1.75;;;0.80;;
29724;SDS011;16636;48.394;15.468;2022-08-11T11:38:08;1.73;;;0.90;;
29724;SDS011;16636;48.394;15.468;2022-08-11T11:40:36;1.85;;;1.10;;
29724;SDS011;16636;48.394;15.468;2022-08-11T11:43:04;1.05;;;0.80;;
29724;SDS011;16636;48.394;15.468;2022-08-11T11:45:31;4.03;;;1.05;;
29724;SDS011;16636;48.394;15.468;2022-08-11T11:47:57;1.40;;;0.80;;
29724;SDS011;16636;48.394;15.468;2022-08-11T11:50:28;4.60;;;0.90;;
29724;SDS011;16636;48.394;15.468;2022-08-11T11:53:07;1.70;;;1.10;;
29724;SDS011;16636;48.394;15.468;2022-08-11T11:55:34;2.05;;;1.15;;
29724;SDS011;16636;48.394;15.468;2022-08-11T11:58:02;2.67;;;0.68;;
29724;SDS011;16636;48.394;15.468;2022-08-11T12:00:47;3.72;;;0.77;;
29724;SDS011;16636;48.394;15.468;2022-08-11T12:06:50;1.48;;;0.77;;
29724;SDS011;16636;48.394;15.468;2022-08-11T12:09:36;1.90;;;0.80;;
29724;SDS011;16636;48.394;15.468;2022-08-11T12:12:02;0.60;;;0.60;;
29724;SDS011;16636;48.394;15.468;2022-08-11T12:14:47;1.83;;;0.60;;
29724;SDS011;16636;48.394;15.468;2022-08-11T12:17:14;4.25;;;0.95;;
29724;SDS011;16636;48.394;15.468;2022-08-11T12:19:40;1.10;;;0.80;;
29724;SDS011;16636;48.394;15.468;2022-08-11T12:25:12;0.98;;;0.82;;
29724;SDS011;16636;48.394;15.468;2022-08-11T12:27:57;1.77;;;0.70;;
29724;SDS011;16636;48.394;15.468;2022-08-11T12:30:24;0.93;;;0.80;;
29724;SDS011;16636;48.394;15.468;2022-08-11T12:32:50;2.15;;;1.40;;
29724;SDS011;16636;48.394;15.468;2022-08-11T12:35:17;2.70;;;0.70;;
29724;SDS011;16636;48.394;15.468;2022-08-11T12:37:47;2.58;;;1.30;;
29724;SDS011;16636;48.394;15.468;2022-08-11T12:40:21;1.67;;;0.80;;
29724;SDS011;16636;48.394;15.468;2022-08-11T12:43:09;0.98;;;0.82;;
29724;SDS011;16636;48.394;15.468;2022-08-11T12:46:06;1.45;;;0.88;;
29724;SDS011;16636;48.394;15.468;2022-08-11T12:49:00;3.45;;;0.80;;
29724;SDS011;16636;48.394;15.468;2022-08-11T12:52:01;1.85;;;0.80;;
29724;SDS011;16636;48.394;15.468;2022-08-11T12:58:01;0.75;;;0.63;;
29724;SDS011;16636;48.394;15.468;2022-08-11T13:00:41;1.00;;;0.60;;
29724;SDS011;16636;48.394;15.468;2022-08-11T13:03:27;1.02;;;0.68;;
29724;SDS011;16636;48.394;15.468;2022-08-11T13:06:12;6.40;;;1.00;;
29724;SDS011;16636;48.394;15.468;2022-08-11T13:08:39;5.35;;;0.57;;
29724;SDS011;16636;48.394;15.468;2022-08-11T13:11:06;0.75;;;0.60;;
29724;SDS011;16636;48.394;15.468;2022-08-11T13:13:52;1.08;;;0.77;;
29724;SDS011;16636;48.394;15.468;2022-08-11T13:16:27;1.33;;;0.70;;
29724;SDS011;16636;48.394;15.468;2022-08-11T13:18:56;0.75;;;0.68;;
29724;SDS011;16636;48.394;15.468;2022-08-11T13:21:25;1.23;;;0.95;;
29724;SDS011;16636;48.394;15.468;2022-08-11T13:23:53;3.63;;;0.88;;
29724;SDS011;16636;48.394;15.468;2022-08-11T13:26:23;3.45;;;0.90;;
29724;SDS011;16636;48.394;15.468;2022-08-11T13:28:49;4.47;;;0.80;;
29724;SDS011;16636;48.394;15.468;2022-08-11T13:31:16;2.30;;;1.20;;
29724;SDS011;16636;48.394;15.468;2022-08-11T13:33:46;1.83;;;0.65;;
29724;SDS011;16636;48.394;15.468;2022-08-11T13:36:20;1.25;;;0.85;;
29724;SDS011;16636;48.394;15.468;2022-08-11T13:38:50;1.27;;;0.80;;
29724;SDS011;16636;48.394;15.468;2022-08-11T13:41:18;1.58;;;0.63;;
29724;SDS011;16636;48.394;15.468;2022-08-11T13:44:04;3.50;;;1.00;;
29724;SDS011;16636;48.394;15.468;2022-08-11T13:46:32;3.17;;;1.05;;
29724;SDS011;16636;48.394;15.468;2022-08-11T13:48:58;4.28;;;0.90;;
29724;SDS011;16636;48.394;15.468;2022-08-11T13:51:25;1.08;;;0.60;;
29724;SDS011;16636;48.394;15.468;2022-08-11T13:53:59;2.22;;;0.88;;
29724;SDS011;16636;48.394;15.468;2022-08-11T13:56:25;0.90;;;0.77;;
29724;SDS011;16636;48.394;15.468;2022-08-11T13:58:53;3.75;;;0.80;;
29724;SDS011;16636;48.394;15.468;2022-08-11T14:04:39;3.05;;;0.80;;
29724;SDS011;16636;48.394;15.468;2022-08-11T14:07:16;1.65;;;0.85;;
29724;SDS011;16636;48.394;15.468;2022-08-11T14:09:47;3.75;;;1.10;;
29724;SDS011;16636;48.394;15.468;2022-08-11T14:12:20;2.40;;;1.05;;
29724;SDS011;16636;48.394;15.468;2022-08-11T14:15:13;1.05;;;0.70;;
29724;SDS011;16636;48.394;15.468;2022-08-11T14:17:44;0.85;;;0.80;;
29724;SDS011;16636;48.394;15.468;2022-08-11T14:20:16;1.73;;;0.88;;
29724;SDS011;16636;48.394;15.468;2022-08-11T14:22:44;1.80;;;0.95;;
29724;SDS011;16636;48.394;15.468;2022-08-11T14:25:14;0.98;;;0.70;;
29724;SDS011;16636;48.394;15.468;2022-08-11T14:27:42;2.30;;;0.93;;
29724;SDS011;16636;48.394;15.468;2022-08-11T14:30:08;1.42;;;0.95;;
29724;SDS011;16636;48.394;15.468;2022-08-11T14:32:55;3.20;;;0.95;;
29724;SDS011;16636;48.394;15.468;2022-08-11T14:35:23;6.55;;;1.38;;
29724;SDS011;16636;48.394;15.468;2022-08-11T14:40:50;3.97;;;0.95;;
29724;SDS011;16636;48.394;15.468;2022-08-11T14:43:35;1.98;;;0.85;;
29724;SDS011;16636;48.394;15.468;2022-08-11T14:46:20;3.10;;;0.63;;
29724;SDS011;16636;48.394;15.468;2022-08-11T14:49:19;1.25;;;0.80;;
29724;SDS011;16636;48.394;15.468;2022-08-11T14:51:46;2.92;;;0.93;;
29724;SDS011;16636;48.394;15.468;2022-08-11T14:54:14;4.03;;;0.90;;
29724;SDS011;16636;48.394;15.468;2022-08-11T14:56:59;2.80;;;0.80;;
29724;SDS011;16636;48.394;15.468;2022-08-11T14:59:27;2.08;;;0.98;;
29724;SDS011;16636;48.394;15.468;2022-08-11T15:01:54;4.63;;;0.90;;
29724;SDS011;16636;48.394;15.468;2022-08-11T15:04:39;2.22;;;1.10;;
29724;SDS011;16636;48.394;15.468;2022-08-11T15:07:05;0.85;;;0.68;;
29724;SDS011;16636;48.394;15.468;2022-08-11T15:09:31;1.05;;;0.88;;
29724;SDS011;16636;48.394;15.468;2022-08-11T15:11:57;1.98;;;1.00;;
29724;SDS011;16636;48.394;15.468;2022-08-11T15:14:34;7.85;;;1.08;;
29724;SDS011;16636;48.394;15.468;2022-08-11T15:17:19;2.20;;;0.90;;
29724;SDS011;16636;48.394;15.468;2022-08-11T15:19:47;5.13;;;1.05;;
29724;SDS011;16636;48.394;15.468;2022-08-11T15:22:33;2.40;;;0.90;;
29724;SDS011;16636;48.394;15.468;2022-08-11T15:25:18;1.10;;;0.75;;
29724;SDS011;16636;48.394;15.468;2022-08-11T15:27:46;4.13;;;1.10;;
29724;SDS011;16636;48.394;15.468;2022-08-11T15:30:33;3.90;;;1.10;;
29724;SDS011;16636;48.394;15.468;2022-08-11T15:33:19;2.40;;;1.02;;
29724;SDS011;16636;48.394;15.468;2022-08-11T15:36:06;0.93;;;0.90;;
29724;SDS011;16636;48.394;15.468;2022-08-11T15:38:57;1.27;;;1.15;;
29724;SDS011;16636;48.394;15.468;2022-08-11T15:42:25;0.98;;;0.90;;
29724;SDS011;16636;48.394;15.468;2022-08-11T15:44:41;2.20;;;1.10;;
29724;SDS011;16636;48.394;15.468;2022-08-11T15:47:50;2.72;;;0.98;;
29724;SDS011;16636;48.394;15.468;2022-08-11T15:50:22;1.77;;;1.02;;
29724;SDS011;16636;48.394;15.468;2022-08-11T15:52:59;3.70;;;1.10;;
29724;SDS011;16636;48.394;15.468;2022-08-11T15:55:28;2.50;;;1.00;;
29724;SDS011;16636;48.394;15.468;2022-08-11T15:57:57;9.98;;;1.23;;
29724;SDS011;16636;48.394;15.468;2022-08-11T16:00:45;2.50;;;0.85;;
29724;SDS011;16636;48.394;15.468;2022-08-11T16:03:32;9.82;;;1.60;;
29724;SDS011;16636;48.394;15.468;2022-08-11T16:06:34;5.38;;;1.25;;
29724;SDS011;16636;48.394;15.468;2022-08-11T16:09:10;4.32;;;1.23;;
29724;SDS011;16636;48.394;15.468;2022-08-11T16:11:38;3.97;;;1.13;;
29724;SDS011;16636;48.394;15.468;2022-08-11T16:14:05;6.82;;;1.33;;
29724;SDS011;16636;48.394;15.468;2022-08-11T16:16:52;3.33;;;1.30;;
29724;SDS011;16636;48.394;15.468;2022-08-11T16:19:19;4.03;;;1.17;;
29724;SDS011;16636;48.394;15.468;2022-08-11T16:21:48;3.85;;;1.33;;
29724;SDS011;16636;48.394;15.468;2022-08-11T16:24:16;5.47;;;1.15;;
29724;SDS011;16636;48.394;15.468;2022-08-11T16:26:44;3.05;;;1.30;;
29724;SDS011;16636;48.394;15.468;2022-08-11T16:29:11;3.25;;;1.00;;
29724;SDS011;16636;48.394;15.468;2022-08-11T16:31:37;4.68;;;1.52;;
29724;SDS011;16636;48.394;15.468;2022-08-11T16:34:06;4.65;;;1.10;;
29724;SDS011;16636;48.394;15.468;2022-08-11T16:36:54;1.95;;;1.20;;
29724;SDS011;16636;48.394;15.468;2022-08-11T16:39:41;2.80;;;1.60;;
29724;SDS011;16636;48.394;15.468;2022-08-11T16:42:08;3.83;;;1.25;;
29724;SDS011;16636;48.394;15.468;2022-08-11T16:44:54;3.03;;;1.40;;
29724;SDS011;16636;48.394;15.468;2022-08-11T16:47:41;2.50;;;1.17;;
29724;SDS011;16636;48.394;15.468;2022-08-11T16:50:10;3.88;;;1.13;;
29724;SDS011;16636;48.394;15.468;2022-08-11T16:52:36;10.07;;;1.20;;
29724;SDS011;16636;48.394;15.468;2022-08-11T16:55:02;3.33;;;1.10;;
29724;SDS011;16636;48.394;15.468;2022-08-11T16:57:29;6.60;;;1.35;;
29724;SDS011;16636;48.394;15.468;2022-08-11T17:00:16;1.15;;;0.70;;
29724;SDS011;16636;48.394;15.468;2022-08-11T17:02:46;2.28;;;1.25;;
29724;SDS011;16636;48.394;15.468;2022-08-11T17:05:34;4.53;;;0.70;;
29724;SDS011;16636;48.394;15.468;2022-08-11T17:08:34;3.50;;;1.25;;
29724;SDS011;16636;48.394;15.468;2022-08-11T17:11:22;3.65;;;1.20;;
29724;SDS011;16636;48.394;15.468;2022-08-11T17:14:10;2.05;;;1.00;;
29724;SDS011;16636;48.394;15.468;2022-08-11T17:16:40;1.42;;;1.08;;
29724;SDS011;16636;48.394;15.468;2022-08-11T17:19:12;1.38;;;1.23;;
29724;SDS011;16636;48.394;15.468;2022-08-11T17:21:47;3.42;;;0.95;;
29724;SDS011;16636;48.394;15.468;2022-08-11T17:24:34;1.50;;;1.05;;
29724;SDS011;16636;48.394;15.468;2022-08-11T17:27:04;4.57;;;1.30;;
29724;SDS011;16636;48.394;15.468;2022-08-11T17:32:26;2.42;;;1.00;;
29724;SDS011;16636;48.394;15.468;2022-08-11T17:35:18;1.13;;;0.90;;
29724;SDS011;16636;48.394;15.468;2022-08-11T17:40:28;2.80;;;1.35;;
29724;SDS011;16636;48.394;15.468;2022-08-11T17:42:56;4.68;;;1.10;;
29724;SDS011;16636;48.394;15.468;2022-08-11T17:45:43;3.45;;;1.30;;
29724;SDS011;16636;48.394;15.468;2022-08-11T17:48:50;1.77;;;1.30;;
29724;SDS011;16636;48.394;15.468;2022-08-11T17:51:17;2.30;;;1.02;;
29724;SDS011;16636;48.394;15.468;2022-08-11T17:54:02;1.13;;;0.80;;
29724;SDS011;16636;48.394;15.468;2022-08-11T17:56:48;2.42;;;1.00;;
29724;SDS011;16636;48.394;15.468;2022-08-11T17:59:33;0.93;;;0.77;;
29724;SDS011;16636;48.394;15.468;2022-08-11T18:05:19;2.05;;;1.10;;
29724;SDS011;16636;48.394;15.468;2022-08-11T18:07:49;1.15;;;0.80;;
29724;SDS011;16636;48.394;15.468;2022-08-11T18:10:35;3.50;;;0.60;;
29724;SDS011;16636;48.394;15.468;2022-08-11T18:13:22;3.17;;;1.10;;
29724;SDS011;16636;48.394;15.468;2022-08-11T18:16:09;1.23;;;0.82;;
29724;SDS011;16636;48.394;15.468;2022-08-11T18:18:55;4.90;;;1.23;;
29724;SDS011;16636;48.394;15.468;2022-08-11T18:21:43;2.90;;;1.00;;
29724;SDS011;16636;48.394;15.468;2022-08-11T18:24:30;4.30;;;1.10;;
29724;SDS011;16636;48.394;15.468;2022-08-11T18:27:20;3.95;;;0.90;;
29724;SDS011;16636;48.394;15.468;2022-08-11T18:30:07;5.47;;;1.23;;
29724;SDS011;16636;48.394;15.468;2022-08-11T18:32:53;4.00;;;1.23;;
29724;SDS011;16636;48.394;15.468;2022-08-11T18:35:41;4.10;;;0.90;;
29724;SDS011;16636;48.394;15.468;2022-08-11T18:38:26;1.95;;;0.93;;
29724;SDS011;16636;48.394;15.468;2022-08-11T18:41:12;2.80;;;1.25;;
29724;SDS011;16636;48.394;15.468;2022-08-11T18:44:01;4.20;;;1.08;;
29724;SDS011;16636;48.394;15.468;2022-08-11T18:46:49;2.90;;;1.10;;
29724;SDS011;16636;48.394;15.468;2022-08-11T18:49:37;1.95;;;1.20;;
29724;SDS011;16636;48.394;15.468;2022-08-11T18:52:24;1.77;;;0.98;;
29724;SDS011;16636;48.394;15.468;2022-08-11T18:55:12;4.78;;;1.45;;
29724;SDS011;16636;48.394;15.468;2022-08-11T18:58:03;3.08;;;1.63;;
29724;SDS011;16636;48.394;15.468;2022-08-11T19:00:53;3.40;;;1.02;;
29724;SDS011;16636;48.394;15.468;2022-08-11T19:03:40;3.53;;;1.10;;
29724;SDS011;16636;48.394;15.468;2022-08-11T19:06:26;4.43;;;0.95;;
29724;SDS011;16636;48.394;15.468;2022-08-11T19:09:15;2.17;;;1.33;;
29724;SDS011;16636;48.394;15.468;2022-08-11T19:12:01;2.75;;;1.00;;
29724;SDS011;16636;48.394;15.468;2022-08-11T19:14:49;4.85;;;1.25;;
29724;SDS011;16636;48.394;15.468;2022-08-11T19:17:34;1.17;;;0.85;;
29724;SDS011;16636;48.394;15.468;2022-08-11T19:20:23;1.58;;;1.05;;
29724;SDS011;16636;48.394;15.468;2022-08-11T19:23:10;5.20;;;1.42;;
29724;SDS011;16636;48.394;15.468;2022-08-11T19:25:57;1.42;;;1.17;;
29724;SDS011;16636;48.394;15.468;2022-08-11T19:28:44;1.08;;;0.90;;
29724;SDS011;16636;48.394;15.468;2022-08-11T19:31:31;2.60;;;1.10;;
29724;SDS011;16636;48.394;15.468;2022-08-11T19:34:17;5.22;;;1.20;;
29724;SDS011;16636;48.394;15.468;2022-08-11T19:37:03;2.42;;;1.30;;
29724;SDS011;16636;48.394;15.468;2022-08-11T19:39:50;1.58;;;0.82;;
29724;SDS011;16636;48.394;15.468;2022-08-11T19:42:41;6.10;;;1.38;;
29724;SDS011;16636;48.394;15.468;2022-08-11T19:45:26;2.42;;;1.40;;
29724;SDS011;16636;48.394;15.468;2022-08-11T19:48:11;4.45;;;1.52;;
29724;SDS011;16636;48.394;15.468;2022-08-11T19:53:40;1.90;;;1.15;;
29724;SDS011;16636;48.394;15.468;2022-08-11T19:56:26;3.45;;;1.02;;
29724;SDS011;16636;48.394;15.468;2022-08-11T19:59:11;2.58;;;1.52;;
29724;SDS011;16636;48.394;15.468;2022-08-11T20:01:56;3.75;;;1.95;;